Time;durP1;ratioP1;P1;durP2;ratioP2;P2;SDS_P1;SDS_P2;PMS_P1;PMS_P2;Temp;Humidity;BMP_temperature;BMP_pressure;BME280_temperature;BME280_humidity;BME280_pressure;Samples;Min_cycle;Max_cycle;Signal;HPM_P1;HPM_P2
2022/10/24 00:00:00;;;;;;;1.08;0.40;;;;;;;;;;4185039;28;20060;-48
2022/10/24 00:02:01;;;;;;;0.40;0.30;;;;;;;;;;4178873;28;20332;-48
2022/10/24 00:04:03;;;;;;;0.35;0.30;;;;;;;;;;4179223;28;20106;-48
2022/10/24 00:06:06;;;;;;;0.30;0.20;;;;;;;;;;4165951;28;20052;-50
2022/10/24 00:08:07;;;;;;;0.40;0.40;;;;;;;;;;4185789;28;20059;-50
2022/10/24 00:10:12;;;;;;;0.40;0.30;;;;;;;;;;4179220;28;20077;-47
2022/10/24 00:12:14;;;;;;;0.50;0.30;;;;;;;;;;4178899;28;20119;-49
2022/10/24 00:14:15;;;;;;;0.47;0.40;;;;;;;;;;4179124;28;20061;-46
2022/10/24 00:16:17;;;;;;;0.35;0.30;;;;;;;;;;4184177;28;20310;-48
2022/10/24 00:18:18;;;;;;;0.82;0.40;;;;;;;;;;4179307;28;20049;-48
2022/10/24 00:20:20;;;;;;;0.30;0.30;;;;;;;;;;4178665;28;20056;-48
2022/10/24 00:22:22;;;;;;;0.50;0.40;;;;;;;;;;4179171;28;20053;-47
2022/10/24 00:24:24;;;;;;;0.52;0.40;;;;;;;;;;4178946;28;20118;-47
2022/10/24 00:26:25;;;;;;;0.50;0.30;;;;;;;;;;4178926;28;20057;-46
2022/10/24 00:28:28;;;;;;;0.30;0.30;;;;;;;;;;4179435;28;20106;-48
2022/10/24 00:30:29;;;;;;;0.60;0.35;;;;;;;;;;4184495;28;20115;-48
2022/10/24 00:32:30;;;;;;;0.50;0.40;;;;;;;;;;4178418;28;20056;-48
2022/10/24 00:34:32;;;;;;;0.22;0.20;;;;;;;;;;4178997;28;20053;-46
2022/10/24 00:36:33;;;;;;;0.57;0.40;;;;;;;;;;4179209;28;20052;-48
2022/10/24 00:38:35;;;;;;;0.70;0.57;;;;;;;;;;4178903;28;20052;-47
2022/10/24 00:40:36;;;;;;;0.38;0.35;;;;;;;;;;4179259;28;20057;-45
2022/10/24 00:42:37;;;;;;;0.40;0.30;;;;;;;;;;4184415;28;20052;-48
2022/10/24 00:44:40;;;;;;;0.45;0.40;;;;;;;;;;4188618;28;20052;-48
2022/10/24 00:46:47;;;;;;;0.57;0.40;;;;;;;;;;4185327;28;20149;-48
2022/10/24 00:48:52;;;;;;;0.32;0.30;;;;;;;;;;4178897;28;20456;-49
2022/10/24 00:51:20;;;;;;;0.45;0.40;;;;;;;;;;4184876;28;20110;-49
2022/10/24 00:53:22;;;;;;;0.60;0.40;;;;;;;;;;4171832;28;20159;-46
2022/10/24 00:55:24;;;;;;;0.40;0.30;;;;;;;;;;4188965;28;20053;-47
2022/10/24 00:57:55;;;;;;;0.43;0.30;;;;;;;;;;4178647;28;20115;-46
2022/10/24 01:00:00;;;;;;;0.20;0.20;;;;;;;;;;4166002;28;20496;-50
2022/10/24 01:02:02;;;;;;;0.30;0.30;;;;;;;;;;4176950;28;20089;-48
2022/10/24 01:04:03;;;;;;;0.32;0.22;;;;;;;;;;4178678;28;20053;-48
2022/10/24 01:06:28;;;;;;;0.40;0.30;;;;;;;;;;4182919;28;20049;-48
2022/10/24 01:08:43;;;;;;;0.30;0.30;;;;;;;;;;4178781;28;20057;-45
2022/10/24 01:10:50;;;;;;;0.38;0.30;;;;;;;;;;4187024;28;20440;-48
2022/10/24 01:13:39;;;;;;;0.50;0.40;;;;;;;;;;4187075;28;20053;-47
2022/10/24 01:15:57;;;;;;;0.50;0.30;;;;;;;;;;4177788;28;20061;-47
2022/10/24 01:18:22;;;;;;;0.88;0.50;;;;;;;;;;4182301;28;20520;-50
2022/10/24 01:20:44;;;;;;;0.40;0.32;;;;;;;;;;4185347;28;20045;-48
2022/10/24 01:22:58;;;;;;;0.50;0.30;;;;;;;;;;4195390;28;20083;-47
2022/10/24 01:25:04;;;;;;;0.50;0.40;;;;;;;;;;4186051;28;20049;-48
2022/10/24 01:27:41;;;;;;;0.80;0.60;;;;;;;;;;4189703;28;20134;-45
2022/10/24 01:29:56;;;;;;;0.47;0.30;;;;;;;;;;4184577;28;20049;-45
2022/10/24 01:32:06;;;;;;;0.85;0.40;;;;;;;;;;4185450;28;20370;-48
2022/10/24 01:34:16;;;;;;;0.80;0.60;;;;;;;;;;4193576;28;20385;-48
2022/10/24 01:36:29;;;;;;;0.40;0.30;;;;;;;;;;4185812;28;20045;-49
2022/10/24 01:38:34;;;;;;;0.40;0.40;;;;;;;;;;4186064;28;20052;-47
2022/10/24 01:40:53;;;;;;;0.40;0.40;;;;;;;;;;4180615;28;20063;-49
2022/10/24 01:42:57;;;;;;;0.25;0.20;;;;;;;;;;4181462;28;20464;-49
2022/10/24 01:45:00;;;;;;;0.20;0.20;;;;;;;;;;4182459;28;20049;-48
2022/10/24 01:47:11;;;;;;;0.47;0.47;;;;;;;;;;4178637;28;20446;-51
2022/10/24 01:49:18;;;;;;;0.35;0.30;;;;;;;;;;4188223;28;20053;-48
2022/10/24 01:51:21;;;;;;;0.50;0.40;;;;;;;;;;4193998;28;20106;-49
2022/10/24 01:53:25;;;;;;;0.50;0.50;;;;;;;;;;4180317;28;20386;-50
2022/10/24 01:55:26;;;;;;;0.60;0.50;;;;;;;;;;4197853;28;20053;-48
2022/10/24 01:57:28;;;;;;;0.40;0.38;;;;;;;;;;4182778;28;20138;-47
2022/10/24 01:59:29;;;;;;;0.73;0.50;;;;;;;;;;4198096;28;20056;-49
2022/10/24 02:01:31;;;;;;;0.35;0.32;;;;;;;;;;4184953;28;20152;-51
2022/10/24 02:03:41;;;;;;;0.30;0.30;;;;;;;;;;4192962;28;20430;-46
2022/10/24 02:05:46;;;;;;;0.55;0.50;;;;;;;;;;4180412;28;20103;-48
2022/10/24 02:07:51;;;;;;;0.70;0.55;;;;;;;;;;4187014;28;20110;-48
2022/10/24 02:09:57;;;;;;;1.38;0.40;;;;;;;;;;4187855;28;20558;-48
2022/10/24 02:11:58;;;;;;;0.50;0.30;;;;;;;;;;4186596;28;20052;-46
2022/10/24 02:14:15;;;;;;;0.57;0.40;;;;;;;;;;4188338;28;20056;-48
2022/10/24 02:16:18;;;;;;;0.30;0.30;;;;;;;;;;4162773;28;20058;-48
2022/10/24 02:18:19;;;;;;;0.22;0.20;;;;;;;;;;4181000;28;20064;-48
2022/10/24 02:20:27;;;;;;;0.30;0.30;;;;;;;;;;4182137;28;20052;-46
2022/10/24 02:22:29;;;;;;;0.40;0.40;;;;;;;;;;4192072;28;20115;-51
2022/10/24 02:24:41;;;;;;;0.40;0.40;;;;;;;;;;4180830;28;20490;-48
2022/10/24 02:26:57;;;;;;;0.40;0.30;;;;;;;;;;4179671;28;20516;-52
2022/10/24 02:29:02;;;;;;;0.40;0.30;;;;;;;;;;4192629;28;20057;-50
2022/10/24 02:31:10;;;;;;;0.70;0.40;;;;;;;;;;4189040;28;20057;-47
2022/10/24 02:33:12;;;;;;;0.40;0.30;;;;;;;;;;4167400;28;20049;-50
2022/10/24 02:35:15;;;;;;;0.32;0.22;;;;;;;;;;4179230;28;20052;-49
2022/10/24 02:37:17;;;;;;;0.60;0.50;;;;;;;;;;4185086;28;20094;-45
2022/10/24 02:39:19;;;;;;;0.43;0.32;;;;;;;;;;4186614;28;20122;-46
2022/10/24 02:41:29;;;;;;;0.38;0.30;;;;;;;;;;4179661;28;20052;-47
2022/10/24 02:43:31;;;;;;;0.35;0.35;;;;;;;;;;4180829;28;20065;-45
2022/10/24 02:45:33;;;;;;;0.45;0.30;;;;;;;;;;4186968;28;20491;-46
2022/10/24 02:47:35;;;;;;;0.80;0.40;;;;;;;;;;4180447;28;20059;-48
2022/10/24 02:49:36;;;;;;;0.35;0.30;;;;;;;;;;4186371;28;20412;-49
2022/10/24 02:51:40;;;;;;;0.40;0.30;;;;;;;;;;4180600;28;20057;-45
2022/10/24 02:53:41;;;;;;;0.35;0.35;;;;;;;;;;4180259;28;20401;-48
2022/10/24 02:55:43;;;;;;;0.40;0.30;;;;;;;;;;4189906;28;20484;-49
2022/10/24 02:57:44;;;;;;;1.10;0.60;;;;;;;;;;4185955;28;20052;-49
2022/10/24 02:59:45;;;;;;;0.57;0.50;;;;;;;;;;4181029;28;20110;-49
2022/10/24 03:01:47;;;;;;;0.50;0.40;;;;;;;;;;4180683;28;20060;-47
2022/10/24 03:03:49;;;;;;;0.38;0.30;;;;;;;;;;4180759;28;20102;-46
2022/10/24 03:05:50;;;;;;;0.73;0.40;;;;;;;;;;4180788;28;20079;-48
2022/10/24 03:07:51;;;;;;;0.80;0.60;;;;;;;;;;4181115;28;20056;-46
2022/10/24 03:09:52;;;;;;;0.40;0.30;;;;;;;;;;4185552;28;20064;-48
2022/10/24 03:11:54;;;;;;;0.30;0.30;;;;;;;;;;4180663;28;20053;-46
2022/10/24 03:13:55;;;;;;;0.50;0.30;;;;;;;;;;4185862;28;20057;-48
2022/10/24 03:15:56;;;;;;;0.40;0.30;;;;;;;;;;4180323;28;20048;-46
2022/10/24 03:17:58;;;;;;;0.50;0.40;;;;;;;;;;4185203;28;20550;-48
2022/10/24 03:19:59;;;;;;;0.47;0.45;;;;;;;;;;4180095;28;20060;-43
2022/10/24 03:22:00;;;;;;;0.32;0.30;;;;;;;;;;4180045;28;20053;-46
2022/10/24 03:24:02;;;;;;;0.40;0.30;;;;;;;;;;4178837;28;20087;-46
2022/10/24 03:26:04;;;;;;;0.30;0.30;;;;;;;;;;4178391;28;20057;-47
2022/10/24 03:28:05;;;;;;;0.40;0.40;;;;;;;;;;4179996;28;20115;-47
2022/10/24 03:30:07;;;;;;;0.50;0.40;;;;;;;;;;4179974;28;20099;-46
2022/10/24 03:32:08;;;;;;;0.50;0.40;;;;;;;;;;4183855;28;20108;-46
2022/10/24 03:34:10;;;;;;;0.55;0.30;;;;;;;;;;4185039;28;20106;-47
2022/10/24 03:36:11;;;;;;;0.20;0.20;;;;;;;;;;4184672;28;20488;-46
2022/10/24 03:38:12;;;;;;;0.47;0.30;;;;;;;;;;4179877;28;20053;-46
2022/10/24 03:40:14;;;;;;;0.50;0.40;;;;;;;;;;4180195;28;20110;-48
2022/10/24 03:42:15;;;;;;;0.50;0.30;;;;;;;;;;4186954;28;20060;-49
2022/10/24 03:44:17;;;;;;;0.50;0.50;;;;;;;;;;4187602;28;20079;-46
2022/10/24 03:46:18;;;;;;;0.40;0.30;;;;;;;;;;4193858;28;20049;-48
2022/10/24 03:48:19;;;;;;;0.55;0.30;;;;;;;;;;4178582;28;20057;-48
2022/10/24 03:50:21;;;;;;;0.35;0.35;;;;;;;;;;4179626;28;20118;-48
2022/10/24 03:52:22;;;;;;;0.30;0.30;;;;;;;;;;4179356;28;20049;-48
2022/10/24 03:54:23;;;;;;;0.38;0.30;;;;;;;;;;4179593;28;20409;-48
2022/10/24 03:56:25;;;;;;;0.40;0.35;;;;;;;;;;4181661;28;20048;-44
2022/10/24 03:58:26;;;;;;;0.65;0.40;;;;;;;;;;4184806;28;20053;-52
2022/10/24 04:00:28;;;;;;;0.30;0.30;;;;;;;;;;4179216;28;20052;-46
2022/10/24 04:02:29;;;;;;;0.70;0.40;;;;;;;;;;4173878;28;20452;-47
2022/10/24 04:04:31;;;;;;;0.52;0.38;;;;;;;;;;4194247;28;20056;-48
2022/10/24 04:06:32;;;;;;;0.35;0.30;;;;;;;;;;4183902;28;20060;-45
2022/10/24 04:08:34;;;;;;;0.40;0.30;;;;;;;;;;4178206;28;20083;-46
2022/10/24 04:10:35;;;;;;;0.43;0.30;;;;;;;;;;4186141;28;20060;-44
2022/10/24 04:12:36;;;;;;;0.40;0.25;;;;;;;;;;4176944;28;20484;-48
2022/10/24 04:14:38;;;;;;;0.38;0.30;;;;;;;;;;4178124;28;20512;-48
2022/10/24 04:16:39;;;;;;;0.55;0.35;;;;;;;;;;4178786;28;20271;-48
2022/10/24 04:18:40;;;;;;;0.80;0.50;;;;;;;;;;4183591;28;20061;-47
2022/10/24 04:20:42;;;;;;;0.65;0.32;;;;;;;;;;4179514;28;20115;-46
2022/10/24 04:22:43;;;;;;;0.65;0.50;;;;;;;;;;4178950;28;20419;-47
2022/10/24 04:24:44;;;;;;;1.85;0.50;;;;;;;;;;4179104;28;20056;-47
2022/10/24 04:26:46;;;;;;;0.30;0.30;;;;;;;;;;4192289;28;20056;-46
2022/10/24 04:28:47;;;;;;;0.30;0.30;;;;;;;;;;4179155;28;20068;-45
2022/10/24 04:30:53;;;;;;;0.60;0.57;;;;;;;;;;4179021;28;20061;-48
2022/10/24 04:32:55;;;;;;;0.50;0.50;;;;;;;;;;4178994;28;20053;-48
2022/10/24 04:34:56;;;;;;;0.22;0.22;;;;;;;;;;4179123;28;20056;-48
2022/10/24 04:36:58;;;;;;;0.60;0.40;;;;;;;;;;4179294;28;20430;-48
2022/10/24 04:38:59;;;;;;;1.02;0.63;;;;;;;;;;4179050;28;20052;-48
2022/10/24 04:41:00;;;;;;;0.43;0.40;;;;;;;;;;4178961;28;20056;-48
2022/10/24 04:43:01;;;;;;;0.57;0.50;;;;;;;;;;4186385;28;20098;-48
2022/10/24 04:45:03;;;;;;;0.35;0.22;;;;;;;;;;4180947;28;20053;-46
2022/10/24 04:47:05;;;;;;;0.47;0.30;;;;;;;;;;4180888;28;20516;-49
2022/10/24 04:49:06;;;;;;;1.33;0.45;;;;;;;;;;4194484;28;20161;-46
2022/10/24 04:51:08;;;;;;;1.20;0.47;;;;;;;;;;4177493;28;20107;-48
2022/10/24 04:53:09;;;;;;;0.50;0.40;;;;;;;;;;4181591;28;20053;-47
2022/10/24 04:55:11;;;;;;;0.50;0.40;;;;;;;;;;4189520;28;20107;-46
2022/10/24 04:57:13;;;;;;;0.65;0.52;;;;;;;;;;4192274;28;20229;-46
2022/10/24 04:59:14;;;;;;;0.70;0.40;;;;;;;;;;4181445;28;20057;-48
2022/10/24 05:01:16;;;;;;;1.05;0.40;;;;;;;;;;4186759;28;20056;-46
2022/10/24 05:03:18;;;;;;;0.40;0.30;;;;;;;;;;4180430;28;20061;-45
2022/10/24 05:05:20;;;;;;;0.55;0.52;;;;;;;;;;4179785;28;20488;-45
2022/10/24 05:07:21;;;;;;;0.30;0.30;;;;;;;;;;4184786;28;20143;-45
2022/10/24 05:09:23;;;;;;;0.70;0.40;;;;;;;;;;4186212;28;20484;-48
2022/10/24 05:11:25;;;;;;;0.45;0.40;;;;;;;;;;4183032;28;20110;-46
2022/10/24 05:13:26;;;;;;;0.77;0.40;;;;;;;;;;4181713;28;20068;-47
2022/10/24 05:15:28;;;;;;;0.30;0.30;;;;;;;;;;4178726;28;20091;-45
2022/10/24 05:17:30;;;;;;;0.20;0.20;;;;;;;;;;4179365;28;20056;-44
2022/10/24 05:19:31;;;;;;;0.43;0.30;;;;;;;;;;4186674;28;20056;-45
2022/10/24 05:21:32;;;;;;;0.73;0.30;;;;;;;;;;4181056;28;20049;-48
2022/10/24 05:23:34;;;;;;;0.20;0.20;;;;;;;;;;4179540;28;20086;-46
2022/10/24 05:25:35;;;;;;;0.30;0.30;;;;;;;;;;4186275;28;20056;-45
2022/10/24 05:27:36;;;;;;;0.57;0.40;;;;;;;;;;4187010;28;20422;-46
2022/10/24 05:29:37;;;;;;;0.32;0.20;;;;;;;;;;4192931;28;20102;-45
2022/10/24 05:31:39;;;;;;;0.40;0.20;;;;;;;;;;4187743;28;20048;-49
2022/10/24 05:33:41;;;;;;;0.93;0.30;;;;;;;;;;4180616;28;20099;-43
2022/10/24 05:35:42;;;;;;;0.32;0.22;;;;;;;;;;4188792;28;20574;-48
2022/10/24 05:37:43;;;;;;;1.85;0.35;;;;;;;;;;4190377;28;20119;-44
2022/10/24 05:39:45;;;;;;;0.40;0.30;;;;;;;;;;4201809;28;20110;-48
2022/10/24 05:41:46;;;;;;;0.98;0.28;;;;;;;;;;4196339;28;20477;-45
2022/10/24 05:43:48;;;;;;;0.20;0.20;;;;;;;;;;4183649;28;20749;-48
2022/10/24 05:45:49;;;;;;;0.30;0.30;;;;;;;;;;4193972;28;20082;-50
2022/10/24 05:47:50;;;;;;;0.47;0.25;;;;;;;;;;4194788;28;20483;-46
2022/10/24 05:49:52;;;;;;;0.15;0.15;;;;;;;;;;4189252;28;20060;-46
2022/10/24 05:51:53;;;;;;;0.20;0.20;;;;;;;;;;4191274;28;20048;-47
2022/10/24 05:53:54;;;;;;;0.90;0.20;;;;;;;;;;4186864;28;20586;-49
2022/10/24 05:55:55;;;;;;;0.32;0.20;;;;;;;;;;4190073;28;20597;-45
2022/10/24 05:57:56;;;;;;;1.15;0.20;;;;;;;;;;4195476;28;20516;-48
2022/10/24 05:59:58;;;;;;;2.40;0.30;;;;;;;;;;4185862;28;20053;-47
2022/10/24 06:01:59;;;;;;;0.38;0.30;;;;;;;;;;4187190;28;20960;-46
2022/10/24 06:04:01;;;;;;;1.30;0.47;;;;;;;;;;4188067;28;20984;-47
2022/10/24 06:06:06;;;;;;;0.32;0.20;;;;;;;;;;4193299;28;20287;-48
2022/10/24 06:08:07;;;;;;;2.22;0.20;;;;;;;;;;4192989;28;20430;-43
2022/10/24 06:10:10;;;;;;;0.47;0.20;;;;;;;;;;4180229;28;20495;-41
2022/10/24 06:12:11;;;;;;;2.58;0.40;;;;;;;;;;4176992;28;20138;-42
2022/10/24 06:14:12;;;;;;;0.20;0.20;;;;;;;;;;4173634;28;20090;-49
2022/10/24 06:16:13;;;;;;;0.38;0.20;;;;;;;;;;4184122;28;20053;-45
2022/10/24 06:18:15;;;;;;;3.17;0.20;;;;;;;;;;4185002;28;20048;-47
2022/10/24 06:20:17;;;;;;;0.43;0.20;;;;;;;;;;4173890;28;20060;-43
2022/10/24 06:22:18;;;;;;;0.88;0.17;;;;;;;;;;4185240;28;20056;-46
2022/10/24 06:24:19;;;;;;;0.55;0.17;;;;;;;;;;4184311;28;20063;-45
2022/10/24 06:26:20;;;;;;;1.13;0.30;;;;;;;;;;4175563;28;20429;-44
2022/10/24 06:28:22;;;;;;;5.78;0.30;;;;;;;;;;4165778;28;20052;-43
2022/10/24 06:30:23;;;;;;;0.98;0.28;;;;;;;;;;4170961;28;20064;-45
2022/10/24 06:32:25;;;;;;;1.52;0.35;;;;;;;;;;4166107;28;20393;-44
2022/10/24 06:34:27;;;;;;;0.20;0.20;;;;;;;;;;4159528;28;21019;-45
2022/10/24 06:36:28;;;;;;;0.20;0.10;;;;;;;;;;4175441;28;20171;-47
2022/10/24 06:38:30;;;;;;;0.20;0.20;;;;;;;;;;4177243;28;20109;-41
2022/10/24 06:40:32;;;;;;;0.40;0.20;;;;;;;;;;4179558;28;20067;-46
2022/10/24 06:42:34;;;;;;;0.43;0.35;;;;;;;;;;4169963;28;20057;-49
2022/10/24 06:44:35;;;;;;;0.52;0.30;;;;;;;;;;4172899;28;20426;-44
2022/10/24 06:46:37;;;;;;;0.68;0.20;;;;;;;;;;4169757;28;20302;-46
2022/10/24 06:48:38;;;;;;;0.17;0.10;;;;;;;;;;4162553;28;20149;-45
2022/10/24 06:50:40;;;;;;;3.63;0.20;;;;;;;;;;4161189;28;20562;-45
2022/10/24 06:52:41;;;;;;;1.70;0.30;;;;;;;;;;4144308;28;20057;-46
2022/10/24 06:54:43;;;;;;;0.52;0.20;;;;;;;;;;4158087;28;20067;-45
2022/10/24 06:56:44;;;;;;;2.08;0.38;;;;;;;;;;4166622;28;20052;-43
2022/10/24 06:58:46;;;;;;;0.70;0.28;;;;;;;;;;4149892;28;20451;-46
2022/10/24 07:00:47;;;;;;;1.30;0.30;;;;;;;;;;4159273;28;20056;-46
2022/10/24 07:02:48;;;;;;;0.28;0.10;;;;;;;;;;4153527;28;20510;-43
2022/10/24 07:04:50;;;;;;;1.13;0.13;;;;;;;;;;4160022;28;20122;-43
2022/10/24 07:06:51;;;;;;;0.63;0.30;;;;;;;;;;4156018;28;20061;-41
2022/10/24 07:08:54;;;;;;;0.70;0.17;;;;;;;;;;4156244;28;20105;-43
2022/10/24 07:10:56;;;;;;;0.50;0.20;;;;;;;;;;4151556;28;20060;-43
2022/10/24 07:12:57;;;;;;;0.35;0.15;;;;;;;;;;4164011;28;20113;-40
2022/10/24 07:14:58;;;;;;;0.80;0.20;;;;;;;;;;4148118;28;20048;-41
2022/10/24 07:16:59;;;;;;;2.28;0.40;;;;;;;;;;4134357;28;20699;-41
2022/10/24 07:19:01;;;;;;;3.22;0.30;;;;;;;;;;4149995;28;20053;-40
2022/10/24 07:21:05;;;;;;;0.77;0.15;;;;;;;;;;4158735;28;21037;-44
2022/10/24 07:23:06;;;;;;;0.20;0.10;;;;;;;;;;4164278;28;20105;-44
2022/10/24 07:25:08;;;;;;;0.40;0.20;;;;;;;;;;4165724;28;20059;-44
2022/10/24 07:27:09;;;;;;;1.85;0.32;;;;;;;;;;4165651;28;20110;-43
2022/10/24 07:29:11;;;;;;;0.20;0.10;;;;;;;;;;4166354;28;20114;-43
2022/10/24 07:31:16;;;;;;;2.17;0.20;;;;;;;;;;4170161;28;20055;-41
2022/10/24 07:33:17;;;;;;;1.73;0.20;;;;;;;;;;4158763;28;20925;-40
2022/10/24 07:35:18;;;;;;;0.25;0.20;;;;;;;;;;4164273;28;20052;-41
2022/10/24 07:37:19;;;;;;;0.75;0.10;;;;;;;;;;4157125;28;22827;-41
2022/10/24 07:39:22;;;;;;;0.30;0.15;;;;;;;;;;4161455;28;20064;-43
2022/10/24 07:41:24;;;;;;;0.30;0.10;;;;;;;;;;4160148;28;20080;-40
2022/10/24 07:43:25;;;;;;;1.33;0.10;;;;;;;;;;4156152;28;20053;-44
2022/10/24 07:45:28;;;;;;;0.55;0.20;;;;;;;;;;4151275;28;20059;-41
2022/10/24 07:47:29;;;;;;;3.63;0.20;;;;;;;;;;4154904;28;20603;-42
2022/10/24 07:49:32;;;;;;;1.73;0.22;;;;;;;;;;4161943;28;20055;-41
2022/10/24 07:51:33;;;;;;;3.45;0.25;;;;;;;;;;4146394;28;20071;-41
2022/10/24 07:53:35;;;;;;;1.45;0.20;;;;;;;;;;4150956;28;20061;-42
2022/10/24 07:55:41;;;;;;;0.75;0.17;;;;;;;;;;4162065;28;21383;-43
2022/10/24 07:57:42;;;;;;;1.35;0.20;;;;;;;;;;4132529;28;20060;-47
2022/10/24 07:59:44;;;;;;;1.45;0.30;;;;;;;;;;4128522;28;20056;-44
2022/10/24 08:01:46;;;;;;;0.75;0.20;;;;;;;;;;4122633;28;20351;-41
2022/10/24 08:03:48;;;;;;;0.52;0.30;;;;;;;;;;4153163;28;21372;-43
2022/10/24 08:05:55;;;;;;;1.52;0.20;;;;;;;;;;4157395;28;20053;-45
2022/10/24 08:07:56;;;;;;;4.85;0.50;;;;;;;;;;4142694;28;20126;-41
2022/10/24 08:09:57;;;;;;;3.42;0.30;;;;;;;;;;4162712;28;20373;-42
2022/10/24 08:11:59;;;;;;;5.03;0.17;;;;;;;;;;4150940;28;20121;-43
2022/10/24 08:14:03;;;;;;;1.45;0.30;;;;;;;;;;4157040;28;20418;-41
2022/10/24 08:16:06;;;;;;;0.63;0.38;;;;;;;;;;4146606;28;20045;-41
2022/10/24 08:18:07;;;;;;;2.30;0.20;;;;;;;;;;4153110;28;20448;-44
2022/10/24 08:20:09;;;;;;;1.85;0.30;;;;;;;;;;4156891;28;20439;-44
2022/10/24 08:22:11;;;;;;;4.32;0.38;;;;;;;;;;4157786;28;20063;-44
2022/10/24 08:24:13;;;;;;;1.92;0.20;;;;;;;;;;4149325;28;20059;-44
2022/10/24 08:26:17;;;;;;;1.23;0.30;;;;;;;;;;4161886;28;20094;-41
2022/10/24 08:28:19;;;;;;;0.17;0.10;;;;;;;;;;4160333;28;20113;-42
2022/10/24 08:30:20;;;;;;;0.73;0.20;;;;;;;;;;4160089;28;20841;-45
2022/10/24 08:32:21;;;;;;;0.43;0.17;;;;;;;;;;4155849;28;20494;-43
2022/10/24 08:34:23;;;;;;;0.35;0.20;;;;;;;;;;4158025;28;20665;-43
2022/10/24 08:36:27;;;;;;;0.13;0.10;;;;;;;;;;4152204;28;20052;-45
2022/10/24 08:38:29;;;;;;;1.08;0.10;;;;;;;;;;4145200;28;20552;-41
2022/10/24 08:40:31;;;;;;;2.20;0.15;;;;;;;;;;4140270;28;20059;-44
2022/10/24 08:42:32;;;;;;;1.80;0.20;;;;;;;;;;4137386;28;20622;-42
2022/10/24 08:44:39;;;;;;;2.70;0.20;;;;;;;;;;4150536;28;21812;-44
2022/10/24 08:46:51;;;;;;;0.88;0.22;;;;;;;;;;4161145;28;20105;-44
2022/10/24 08:48:56;;;;;;;0.20;0.10;;;;;;;;;;4162173;28;20110;-48
2022/10/24 08:51:05;;;;;;;0.32;0.10;;;;;;;;;;4155079;28;21884;-46
2022/10/24 08:53:09;;;;;;;0.57;0.20;;;;;;;;;;4168372;28;20066;-44
2022/10/24 08:55:24;;;;;;;3.10;0.20;;;;;;;;;;4158970;28;20090;-44
2022/10/24 08:57:28;;;;;;;0.63;0.20;;;;;;;;;;4158541;28;20060;-43
2022/10/24 08:59:32;;;;;;;1.30;0.20;;;;;;;;;;4140956;28;20453;-41
2022/10/24 09:01:42;;;;;;;1.90;0.20;;;;;;;;;;4130298;28;20064;-43
2022/10/24 09:03:47;;;;;;;0.73;0.20;;;;;;;;;;4142257;28;20056;-43
2022/10/24 09:05:50;;;;;;;0.43;0.25;;;;;;;;;;4156962;28;20051;-42
2022/10/24 09:08:00;;;;;;;1.55;0.20;;;;;;;;;;4146141;28;20134;-43
2022/10/24 09:10:12;;;;;;;2.30;0.20;;;;;;;;;;4146766;28;20078;-42
2022/10/24 09:12:16;;;;;;;0.40;0.20;;;;;;;;;;4159454;28;20056;-43
2022/10/24 09:14:25;;;;;;;0.88;0.20;;;;;;;;;;4134108;28;20391;-40
2022/10/24 09:16:26;;;;;;;4.22;0.20;;;;;;;;;;4147668;28;21104;-44
2022/10/24 09:18:33;;;;;;;1.42;0.17;;;;;;;;;;4153040;28;20620;-44
2022/10/24 09:20:34;;;;;;;2.55;0.17;;;;;;;;;;4155837;28;20060;-45
2022/10/24 09:22:35;;;;;;;4.03;0.20;;;;;;;;;;4151581;28;20146;-40
2022/10/24 09:24:54;;;;;;;0.35;0.20;;;;;;;;;;4145609;28;20060;-47
2022/10/24 09:26:59;;;;;;;7.68;0.38;;;;;;;;;;4163216;28;20302;-41
2022/10/24 09:29:00;;;;;;;2.55;0.17;;;;;;;;;;4148432;28;20087;-43
2022/10/24 09:31:15;;;;;;;4.20;0.28;;;;;;;;;;4150956;28;20101;-41
2022/10/24 09:33:19;;;;;;;0.65;0.20;;;;;;;;;;4143810;28;20135;-45
2022/10/24 09:35:23;;;;;;;0.30;0.10;;;;;;;;;;4158724;28;20746;-45
2022/10/24 09:37:37;;;;;;;2.55;0.22;;;;;;;;;;4165083;28;20057;-42
2022/10/24 09:39:38;;;;;;;0.50;0.20;;;;;;;;;;4166896;28;20048;-43
2022/10/24 09:41:45;;;;;;;0.40;0.20;;;;;;;;;;4154657;28;20064;-42
2022/10/24 09:43:55;;;;;;;1.33;0.20;;;;;;;;;;4168250;28;20060;-44
2022/10/24 09:46:04;;;;;;;1.67;0.15;;;;;;;;;;4166402;28;20541;-40
2022/10/24 09:48:26;;;;;;;2.83;0.20;;;;;;;;;;4172626;28;20133;-45
2022/10/24 09:50:47;;;;;;;0.38;0.10;;;;;;;;;;4166808;28;20130;-42
2022/10/24 09:52:50;;;;;;;0.13;0.10;;;;;;;;;;4158971;28;20052;-43
2022/10/24 09:55:30;;;;;;;0.63;0.20;;;;;;;;;;4161873;28;21062;-44
2022/10/24 09:57:39;;;;;;;3.47;0.30;;;;;;;;;;4118339;28;20188;-46
2022/10/24 09:59:49;;;;;;;0.95;0.20;;;;;;;;;;4116678;28;20053;-43
2022/10/24 10:01:51;;;;;;;1.42;0.30;;;;;;;;;;4100828;28;20058;-42
2022/10/24 10:04:03;;;;;;;3.70;0.30;;;;;;;;;;4151375;28;20389;-45
2022/10/24 10:06:19;;;;;;;5.68;0.28;;;;;;;;;;4173826;28;20896;-40
2022/10/24 10:08:22;;;;;;;0.63;0.28;;;;;;;;;;4186272;28;20086;-42
2022/10/24 10:10:33;;;;;;;0.57;0.13;;;;;;;;;;4163311;28;20056;-45
2022/10/24 10:12:37;;;;;;;1.65;0.17;;;;;;;;;;4174936;28;20104;-44
2022/10/24 10:14:40;;;;;;;3.20;0.30;;;;;;;;;;4169162;28;20462;-43
2022/10/24 10:16:41;;;;;;;0.43;0.20;;;;;;;;;;4164588;28;20151;-41
2022/10/24 10:18:45;;;;;;;3.35;0.25;;;;;;;;;;4182179;28;20098;-44
2022/10/24 10:21:13;;;;;;;1.50;0.20;;;;;;;;;;4169035;28;20155;-49
2022/10/24 10:23:31;;;;;;;0.38;0.20;;;;;;;;;;4157523;28;20345;-45
2022/10/24 10:25:32;;;;;;;0.15;0.13;;;;;;;;;;4171721;28;20052;-43
2022/10/24 10:27:37;;;;;;;3.10;0.22;;;;;;;;;;4163449;28;20147;-43
2022/10/24 10:29:38;;;;;;;0.82;0.10;;;;;;;;;;4168574;28;20753;-45
2022/10/24 10:31:42;;;;;;;2.22;0.20;;;;;;;;;;4171950;28;20082;-44
2022/10/24 10:34:16;;;;;;;0.30;0.20;;;;;;;;;;4172344;28;20064;-47
2022/10/24 10:36:24;;;;;;;1.23;0.35;;;;;;;;;;4175838;28;20103;-48
2022/10/24 10:38:47;;;;;;;0.30;0.30;;;;;;;;;;4162367;28;20057;-44
2022/10/24 10:41:21;;;;;;;0.10;0.10;;;;;;;;;;4169808;28;20315;-45
2022/10/24 10:44:03;;;;;;;0.30;0.15;;;;;;;;;;4144872;28;20109;-44
2022/10/24 10:46:23;;;;;;;1.25;0.28;;;;;;;;;;4170494;28;20048;-43
2022/10/24 10:48:57;;;;;;;1.27;0.20;;;;;;;;;;4161520;28;20052;-42
2022/10/24 10:51:07;;;;;;;0.10;0.10;;;;;;;;;;4164002;28;20432;-41
2022/10/24 10:53:27;;;;;;;0.45;0.20;;;;;;;;;;4165197;28;20573;-40
2022/10/24 10:55:43;;;;;;;0.47;0.32;;;;;;;;;;4186427;28;20141;-40
2022/10/24 10:57:53;;;;;;;0.80;0.30;;;;;;;;;;4165270;28;20082;-39
2022/10/24 11:00:08;;;;;;;0.77;0.20;;;;;;;;;;4163355;28;20064;-38
2022/10/24 11:02:12;;;;;;;0.20;0.10;;;;;;;;;;4154174;28;20224;-39
2022/10/24 11:04:36;;;;;;;0.70;0.20;;;;;;;;;;4141839;28;20443;-39
2022/10/24 11:06:43;;;;;;;0.20;0.20;;;;;;;;;;4140728;28;20064;-40
2022/10/24 11:08:49;;;;;;;3.00;0.70;;;;;;;;;;4151477;28;20146;-39
2022/10/24 11:11:00;;;;;;;4.18;0.38;;;;;;;;;;4160547;28;20075;-40
2022/10/24 11:13:06;;;;;;;0.30;0.20;;;;;;;;;;4158712;28;20061;-40
2022/10/24 11:15:34;;;;;;;1.85;0.25;;;;;;;;;;4162737;28;20522;-39
2022/10/24 11:17:41;;;;;;;2.55;0.10;;;;;;;;;;4156204;28;21197;-40
2022/10/24 11:20:05;;;;;;;1.05;0.35;;;;;;;;;;4157747;28;20066;-40
2022/10/24 11:22:14;;;;;;;2.33;0.28;;;;;;;;;;4157984;28;20099;-39
2022/10/24 11:24:20;;;;;;;2.42;0.52;;;;;;;;;;4160404;28;20737;-39
2022/10/24 11:26:37;;;;;;;0.32;0.28;;;;;;;;;;4160530;28;20086;-39
2022/10/24 11:28:40;;;;;;;0.82;0.30;;;;;;;;;;4163955;28;20222;-38
2022/10/24 11:30:50;;;;;;;1.10;0.17;;;;;;;;;;4154539;28;22124;-38
2022/10/24 11:32:57;;;;;;;1.08;0.20;;;;;;;;;;4160760;28;20177;-39
2022/10/24 11:35:27;;;;;;;0.98;0.17;;;;;;;;;;4137622;28;20056;-39
2022/10/24 11:37:37;;;;;;;2.40;0.40;;;;;;;;;;4156172;28;20533;-39
2022/10/24 11:39:54;;;;;;;0.20;0.10;;;;;;;;;;4153951;28;20056;-38
2022/10/24 11:42:13;;;;;;;5.95;0.38;;;;;;;;;;4155430;28;20098;-38
2022/10/24 11:44:33;;;;;;;1.60;0.20;;;;;;;;;;4162100;28;20714;-38
2022/10/24 11:46:40;;;;;;;0.60;0.60;;;;;;;;;;4148854;28;22304;-38
2022/10/24 11:48:46;;;;;;;7.35;0.50;;;;;;;;;;4156236;28;20071;-39
2022/10/24 11:50:56;;;;;;;0.82;0.15;;;;;;;;;;4152316;28;20102;-40
2022/10/24 11:53:05;;;;;;;0.57;0.20;;;;;;;;;;4160978;28;20145;-39
2022/10/24 11:55:26;;;;;;;0.63;0.20;;;;;;;;;;4158575;28;20060;-38
2022/10/24 11:57:28;;;;;;;0.75;0.20;;;;;;;;;;4161402;28;20089;-39
2022/10/24 11:59:29;;;;;;;1.50;0.32;;;;;;;;;;4163395;28;20094;-39
2022/10/24 12:01:55;;;;;;;2.33;0.10;;;;;;;;;;4140878;28;20052;-39
2022/10/24 12:04:33;;;;;;;0.38;0.22;;;;;;;;;;4148331;28;20783;-39
2022/10/24 12:06:40;;;;;;;0.50;0.30;;;;;;;;;;4145671;28;20052;-40
2022/10/24 12:09:07;;;;;;;0.70;0.20;;;;;;;;;;4157015;28;20048;-39
2022/10/24 12:11:14;;;;;;;1.20;0.20;;;;;;;;;;4149902;28;22878;-39
2022/10/24 12:13:46;;;;;;;3.95;0.17;;;;;;;;;;4145672;28;20078;-38
2022/10/24 12:16:06;;;;;;;0.70;0.30;;;;;;;;;;4148106;28;20301;-39
2022/10/24 12:18:12;;;;;;;0.38;0.28;;;;;;;;;;4157601;28;20944;-39
2022/10/24 12:20:17;;;;;;;3.22;0.30;;;;;;;;;;4142316;28;29903;-38
2022/10/24 12:22:22;;;;;;;3.20;0.20;;;;;;;;;;4166602;28;20056;-39
2022/10/24 12:24:37;;;;;;;4.75;0.32;;;;;;;;;;4129932;28;22054;-38
2022/10/24 12:26:38;;;;;;;0.93;0.28;;;;;;;;;;4150306;28;20110;-38
2022/10/24 12:28:40;;;;;;;1.48;0.30;;;;;;;;;;4139438;28;20711;-40
2022/10/24 12:30:42;;;;;;;0.88;0.20;;;;;;;;;;4150795;28;20063;-38
2022/10/24 12:32:47;;;;;;;0.25;0.17;;;;;;;;;;4144930;28;20063;-38